sensor_id;sensor_type;location;lat;lon;timestamp;pressure;altitude;pressure_sealevel;temperature;humidity
83492;BME280;73661;56.120;12.302;2024-01-15T00:00:05;98228.25;;;2.94;70.76
83492;BME280;73661;56.120;12.302;2024-01-15T00:02:31;98217.09;;;2.95;70.80
83492;BME280;73661;56.120;12.302;2024-01-15T00:04:56;98214.53;;;2.85;71.61
83492;BME280;73661;56.120;12.302;2024-01-15T00:07:22;98203.41;;;2.81;71.97
83492;BME280;73661;56.120;12.302;2024-01-15T00:09:48;98192.19;;;2.87;71.23
83492;BME280;73661;56.120;12.302;2024-01-15T00:12:14;98191.38;;;2.77;71.80
83492;BME280;73661;56.120;12.302;2024-01-15T00:14:39;98180.91;;;3.17;70.85
83492;BME280;73661;56.120;12.302;2024-01-15T00:17:05;98177.50;;;3.15;70.47
83492;BME280;73661;56.120;12.302;2024-01-15T00:19:31;98165.59;;;2.79;72.08
83492;BME280;73661;56.120;12.302;2024-01-15T00:21:57;98155.38;;;2.60;72.79
83492;BME280;73661;56.120;12.302;2024-01-15T00:24:24;98153.66;;;2.58;72.88
83492;BME280;73661;56.120;12.302;2024-01-15T00:26:50;98143.47;;;2.18;73.81
83492;BME280;73661;56.120;12.302;2024-01-15T00:29:16;98143.41;;;2.45;74.36
83492;BME280;73661;56.120;12.302;2024-01-15T00:31:42;98139.88;;;2.71;73.89
83492;BME280;73661;56.120;12.302;2024-01-15T00:34:07;98134.72;;;2.72;73.16
83492;BME280;73661;56.120;12.302;2024-01-15T00:36:33;98121.94;;;2.51;73.80
83492;BME280;73661;56.120;12.302;2024-01-15T00:38:59;98119.25;;;2.74;73.74
83492;BME280;73661;56.120;12.302;2024-01-15T00:41:24;98115.81;;;2.73;74.15
83492;BME280;73661;56.120;12.302;2024-01-15T00:43:50;98098.66;;;2.77;73.89
83492;BME280;73661;56.120;12.302;2024-01-15T00:46:16;98103.84;;;2.68;73.62
83492;BME280;73661;56.120;12.302;2024-01-15T00:48:42;98093.59;;;2.56;74.20
83492;BME280;73661;56.120;12.302;2024-01-15T00:51:08;98090.94;;;2.77;74.47
83492;BME280;73661;56.120;12.302;2024-01-15T00:53:33;98085.84;;;2.68;74.25
83492;BME280;73661;56.120;12.302;2024-01-15T00:55:59;98086.63;;;2.73;74.32
83492;BME280;73661;56.120;12.302;2024-01-15T00:58:26;98080.69;;;2.68;74.84
83492;BME280;73661;56.120;12.302;2024-01-15T01:00:52;98078.00;;;2.86;74.12
83492;BME280;73661;56.120;12.302;2024-01-15T01:03:18;98064.97;;;3.11;73.40
83492;BME280;73661;56.120;12.302;2024-01-15T01:05:44;98062.66;;;2.63;74.39
83492;BME280;73661;56.120;12.302;2024-01-15T01:08:10;98055.63;;;2.91;73.99
83492;BME280;73661;56.120;12.302;2024-01-15T01:10:36;98052.28;;;2.77;74.10
83492;BME280;73661;56.120;12.302;2024-01-15T01:13:01;98044.53;;;2.79;74.28
83492;BME280;73661;56.120;12.302;2024-01-15T01:15:27;98042.81;;;2.82;74.79
83492;BME280;73661;56.120;12.302;2024-01-15T01:17:53;98040.84;;;3.22;73.20
83492;BME280;73661;56.120;12.302;2024-01-15T01:20:18;98027.19;;;3.05;73.57
83492;BME280;73661;56.120;12.302;2024-01-15T01:22:44;98030.56;;;3.16;72.67
83492;BME280;73661;56.120;12.302;2024-01-15T01:25:10;98027.19;;;3.08;73.06
83492;BME280;73661;56.120;12.302;2024-01-15T01:27:35;98034.03;;;3.11;73.13
83492;BME280;73661;56.120;12.302;2024-01-15T01:30:01;98025.56;;;2.95;73.21
83492;BME280;73661;56.120;12.302;2024-01-15T01:32:27;98024.53;;;3.22;73.46
83492;BME280;73661;56.120;12.302;2024-01-15T01:34:53;98018.78;;;2.82;74.00
83492;BME280;73661;56.120;12.302;2024-01-15T01:37:19;98009.25;;;2.94;74.19
83492;BME280;73661;56.120;12.302;2024-01-15T01:39:44;98008.66;;;2.54;75.20
83492;BME280;73661;56.120;12.302;2024-01-15T01:42:11;98004.78;;;3.16;73.79
83492;BME280;73661;56.120;12.302;2024-01-15T01:44:38;98003.16;;;3.05;73.59
83492;BME280;73661;56.120;12.302;2024-01-15T01:47:04;98006.44;;;3.28;73.73
83492;BME280;73661;56.120;12.302;2024-01-15T01:49:31;98003.38;;;2.76;74.46
83492;BME280;73661;56.120;12.302;2024-01-15T01:52:00;98002.22;;;3.16;74.00
83492;BME280;73661;56.120;12.302;2024-01-15T01:54:29;98000.66;;;2.92;74.18
83492;BME280;73661;56.120;12.302;2024-01-15T01:56:55;97995.34;;;3.14;74.29
83492;BME280;73661;56.120;12.302;2024-01-15T01:59:26;97986.59;;;1.90;77.45
83492;BME280;73661;56.120;12.302;2024-01-15T02:01:54;97984.91;;;1.80;79.09
83492;BME280;73661;56.120;12.302;2024-01-15T02:04:24;97986.59;;;1.94;78.72
83492;BME280;73661;56.120;12.302;2024-01-15T02:06:50;97984.97;;;1.53;80.64
83492;BME280;73661;56.120;12.302;2024-01-15T02:09:17;97982.44;;;1.54;80.69
83492;BME280;73661;56.120;12.302;2024-01-15T02:11:46;97974.66;;;1.65;81.10
83492;BME280;73661;56.120;12.302;2024-01-15T02:14:12;97974.75;;;1.25;82.55
83492;BME280;73661;56.120;12.302;2024-01-15T02:16:37;97973.88;;;1.42;81.79
83492;BME280;73661;56.120;12.302;2024-01-15T02:19:03;97969.59;;;1.39;81.17
83492;BME280;73661;56.120;12.302;2024-01-15T02:21:29;97972.16;;;1.31;82.56
83492;BME280;73661;56.120;12.302;2024-01-15T02:23:56;97979.00;;;1.20;82.52
83492;BME280;73661;56.120;12.302;2024-01-15T02:26:22;97963.47;;;1.89;80.94
83492;BME280;73661;56.120;12.302;2024-01-15T02:28:51;97968.72;;;1.51;81.28
83492;BME280;73661;56.120;12.302;2024-01-15T02:31:17;97972.16;;;1.45;80.54
83492;BME280;73661;56.120;12.302;2024-01-15T02:33:43;97970.38;;;1.67;80.34
83492;BME280;73661;56.120;12.302;2024-01-15T02:36:11;97967.84;;;1.55;80.61
83492;BME280;73661;56.120;12.302;2024-01-15T02:38:37;97971.25;;;1.68;80.86
83492;BME280;73661;56.120;12.302;2024-01-15T02:41:03;97965.28;;;1.33;81.44
83492;BME280;73661;56.120;12.302;2024-01-15T02:43:28;97979.00;;;1.26;81.03
83492;BME280;73661;56.120;12.302;2024-01-15T02:45:54;97967.03;;;1.38;79.90
83492;BME280;73661;56.120;12.302;2024-01-15T02:48:20;97983.31;;;1.14;78.36
83492;BME280;73661;56.120;12.302;2024-01-15T02:50:46;97985.88;;;1.12;79.17
83492;BME280;73661;56.120;12.302;2024-01-15T02:53:11;97985.88;;;1.15;76.95
83492;BME280;73661;56.120;12.302;2024-01-15T02:55:37;97995.31;;;1.16;77.26
83492;BME280;73661;56.120;12.302;2024-01-15T02:58:03;97999.56;;;0.99;77.73
83492;BME280;73661;56.120;12.302;2024-01-15T03:00:29;97996.16;;;0.88;78.45
83492;BME280;73661;56.120;12.302;2024-01-15T03:02:55;97994.41;;;0.87;78.04
83492;BME280;73661;56.120;12.302;2024-01-15T03:05:21;97994.44;;;0.80;78.71
83492;BME280;73661;56.120;12.302;2024-01-15T03:07:46;98000.38;;;0.60;79.09
83492;BME280;73661;56.120;12.302;2024-01-15T03:10:13;98005.53;;;0.67;77.08
83492;BME280;73661;56.120;12.302;2024-01-15T03:12:38;98012.31;;;0.45;77.97
83492;BME280;73661;56.120;12.302;2024-01-15T03:15:05;98020.03;;;0.59;77.85
83492;BME280;73661;56.120;12.302;2024-01-15T03:17:30;98014.94;;;0.54;78.83
83492;BME280;73661;56.120;12.302;2024-01-15T03:19:56;98016.63;;;0.66;80.01
83492;BME280;73661;56.120;12.302;2024-01-15T03:22:22;98014.97;;;0.79;78.57
83492;BME280;73661;56.120;12.302;2024-01-15T03:24:47;98013.22;;;0.61;79.09
83492;BME280;73661;56.120;12.302;2024-01-15T03:27:13;98017.50;;;0.73;79.40
83492;BME280;73661;56.120;12.302;2024-01-15T03:29:40;98016.69;;;1.58;77.98
83492;BME280;73661;56.120;12.302;2024-01-15T03:32:06;98017.56;;;1.42;77.75
83492;BME280;73661;56.120;12.302;2024-01-15T03:34:32;98010.72;;;0.96;78.31
83492;BME280;73661;56.120;12.302;2024-01-15T03:36:57;98004.69;;;0.93;79.01
83492;BME280;73661;56.120;12.302;2024-01-15T03:39:24;97988.44;;;0.89;76.62
83492;BME280;73661;56.120;12.302;2024-01-15T03:41:50;98002.16;;;0.88;76.54
83492;BME280;73661;56.120;12.302;2024-01-15T03:44:16;98008.13;;;0.82;75.44
83492;BME280;73661;56.120;12.302;2024-01-15T03:46:41;98010.69;;;0.98;75.31
83492;BME280;73661;56.120;12.302;2024-01-15T03:49:07;98001.31;;;0.94;75.25
83492;BME280;73661;56.120;12.302;2024-01-15T03:51:33;97985.03;;;0.87;75.70
83492;BME280;73661;56.120;12.302;2024-01-15T03:53:59;98003.03;;;1.01;77.07
83492;BME280;73661;56.120;12.302;2024-01-15T03:56:24;98001.28;;;0.85;77.15
83492;BME280;73661;56.120;12.302;2024-01-15T03:58:50;97996.13;;;0.72;77.60
83492;BME280;73661;56.120;12.302;2024-01-15T04:01:15;98002.13;;;0.74;78.10
83492;BME280;73661;56.120;12.302;2024-01-15T04:03:41;98004.69;;;0.68;78.99
83492;BME280;73661;56.120;12.302;2024-01-15T04:06:07;98000.38;;;0.55;79.98
83492;BME280;73661;56.120;12.302;2024-01-15T04:08:32;97991.88;;;0.82;80.91
83492;BME280;73661;56.120;12.302;2024-01-15T04:10:58;97993.56;;;1.00;79.74
83492;BME280;73661;56.120;12.302;2024-01-15T04:13:24;97992.72;;;0.98;78.96
83492;BME280;73661;56.120;12.302;2024-01-15T04:15:50;97989.28;;;1.32;78.23
83492;BME280;73661;56.120;12.302;2024-01-15T04:18:16;97986.75;;;1.22;78.71
83492;BME280;73661;56.120;12.302;2024-01-15T04:20:41;97988.44;;;1.49;78.71
83492;BME280;73661;56.120;12.302;2024-01-15T04:23:07;97984.97;;;1.60;78.00
83492;BME280;73661;56.120;12.302;2024-01-15T04:25:33;97979.81;;;1.63;78.06
83492;BME280;73661;56.120;12.302;2024-01-15T04:27:59;97981.53;;;1.66;78.79
83492;BME280;73661;56.120;12.302;2024-01-15T04:30:24;97982.38;;;1.65;78.14
83492;BME280;73661;56.120;12.302;2024-01-15T04:32:50;97984.16;;;1.32;79.51
83492;BME280;73661;56.120;12.302;2024-01-15T04:35:16;97990.91;;;1.85;78.10
83492;BME280;73661;56.120;12.302;2024-01-15T04:37:41;97986.72;;;1.42;79.20
83492;BME280;73661;56.120;12.302;2024-01-15T04:40:08;97991.00;;;1.33;79.67
83492;BME280;73661;56.120;12.302;2024-01-15T04:42:33;98000.44;;;1.04;81.71
83492;BME280;73661;56.120;12.302;2024-01-15T04:45:00;97992.72;;;1.10;81.17
83492;BME280;73661;56.120;12.302;2024-01-15T04:47:25;97996.16;;;1.06;80.52
83492;BME280;73661;56.120;12.302;2024-01-15T04:49:51;97986.75;;;1.09;80.57
83492;BME280;73661;56.120;12.302;2024-01-15T04:52:17;97994.41;;;0.68;83.14
83492;BME280;73661;56.120;12.302;2024-01-15T04:54:42;97989.13;;;0.07;83.70
83492;BME280;73661;56.120;12.302;2024-01-15T04:57:08;97996.94;;;0.41;84.00
83492;BME280;73661;56.120;12.302;2024-01-15T04:59:34;97996.97;;;0.65;84.10
83492;BME280;73661;56.120;12.302;2024-01-15T05:01:59;97996.06;;;0.52;84.15
83492;BME280;73661;56.120;12.302;2024-01-15T05:04:25;97990.06;;;0.38;83.83
83492;BME280;73661;56.120;12.302;2024-01-15T05:06:51;97998.75;;;0.94;83.32
83492;BME280;73661;56.120;12.302;2024-01-15T05:09:17;97985.84;;;1.49;81.52
83492;BME280;73661;56.120;12.302;2024-01-15T05:11:43;97991.88;;;0.82;81.75
83492;BME280;73661;56.120;12.302;2024-01-15T05:14:09;97993.59;;;1.03;81.21
83492;BME280;73661;56.120;12.302;2024-01-15T05:16:38;97994.44;;;0.80;81.22
83492;BME280;73661;56.120;12.302;2024-01-15T05:19:04;97995.25;;;0.61;81.22
83492;BME280;73661;56.120;12.302;2024-01-15T05:21:30;97993.56;;;1.00;81.60
83492;BME280;73661;56.120;12.302;2024-01-15T05:23:55;97998.75;;;1.21;81.46
83492;BME280;73661;56.120;12.302;2024-01-15T05:26:21;97996.16;;;1.04;80.52
83492;BME280;73661;56.120;12.302;2024-01-15T05:28:47;97994.44;;;0.99;81.99
83492;BME280;73661;56.120;12.302;2024-01-15T05:31:12;98006.41;;;1.46;81.85
83492;BME280;73661;56.120;12.302;2024-01-15T05:33:38;98001.28;;;1.33;80.81
83492;BME280;73661;56.120;12.302;2024-01-15T05:36:04;98004.72;;;1.13;80.52
83492;BME280;73661;56.120;12.302;2024-01-15T05:38:30;98014.97;;;1.20;81.50
83492;BME280;73661;56.120;12.302;2024-01-15T05:40:56;98010.69;;;1.68;81.38
83492;BME280;73661;56.120;12.302;2024-01-15T05:43:21;98012.44;;;1.48;80.52
83492;BME280;73661;56.120;12.302;2024-01-15T05:45:47;98021.84;;;1.43;78.97
83492;BME280;73661;56.120;12.302;2024-01-15T05:48:13;98020.94;;;1.74;78.91
83492;BME280;73661;56.120;12.302;2024-01-15T05:50:38;98025.19;;;1.89;77.88
83492;BME280;73661;56.120;12.302;2024-01-15T05:53:04;98033.81;;;1.47;79.33
83492;BME280;73661;56.120;12.302;2024-01-15T05:55:30;98039.84;;;1.49;79.67
83492;BME280;73661;56.120;12.302;2024-01-15T05:57:56;98040.69;;;1.45;79.88
83492;BME280;73661;56.120;12.302;2024-01-15T06:00:22;98039.81;;;1.40;79.29
83492;BME280;73661;56.120;12.302;2024-01-15T06:02:47;98047.53;;;1.52;78.83
83492;BME280;73661;56.120;12.302;2024-01-15T06:05:13;98055.25;;;1.41;78.34
83492;BME280;73661;56.120;12.302;2024-01-15T06:07:39;98060.38;;;1.70;77.02
83492;BME280;73661;56.120;12.302;2024-01-15T06:10:05;98062.09;;;1.38;77.25
83492;BME280;73661;56.120;12.302;2024-01-15T06:12:31;98071.53;;;1.43;77.79
83492;BME280;73661;56.120;12.302;2024-01-15T06:14:58;98083.47;;;1.06;78.76
83492;BME280;73661;56.120;12.302;2024-01-15T06:17:23;98098.06;;;1.24;79.78
83492;BME280;73661;56.120;12.302;2024-01-15T06:19:49;98097.19;;;1.11;78.77
83492;BME280;73661;56.120;12.302;2024-01-15T06:22:15;98092.84;;;0.84;78.66
83492;BME280;73661;56.120;12.302;2024-01-15T06:24:41;98102.34;;;1.20;78.71
83492;BME280;73661;56.120;12.302;2024-01-15T06:27:07;98112.66;;;1.35;78.10
83492;BME280;73661;56.120;12.302;2024-01-15T06:29:32;98114.22;;;0.75;80.46
83492;BME280;73661;56.120;12.302;2024-01-15T06:31:58;98119.94;;;0.19;81.95
83492;BME280;73661;56.120;12.302;2024-01-15T06:34:24;98127.47;;;-0.08;82.75
83492;BME280;73661;56.120;12.302;2024-01-15T06:36:49;98130.88;;;-0.12;83.01
83492;BME280;73661;56.120;12.302;2024-01-15T06:39:15;98133.50;;;-0.06;81.79
83492;BME280;73661;56.120;12.302;2024-01-15T06:41:41;98141.16;;;-0.09;81.02
83492;BME280;73661;56.120;12.302;2024-01-15T06:44:12;98141.84;;;-0.30;81.88
83492;BME280;73661;56.120;12.302;2024-01-15T06:46:44;98159.13;;;-0.06;80.51
83492;BME280;73661;56.120;12.302;2024-01-15T06:49:10;98151.97;;;-0.45;78.82
83492;BME280;73661;56.120;12.302;2024-01-15T06:51:35;98158.13;;;-0.23;78.40
83492;BME280;73661;56.120;12.302;2024-01-15T06:54:01;98168.28;;;-0.37;77.67
83492;BME280;73661;56.120;12.302;2024-01-15T06:56:27;98166.50;;;-0.43;76.00
83492;BME280;73661;56.120;12.302;2024-01-15T06:58:53;98176.78;;;-0.41;76.12
83492;BME280;73661;56.120;12.302;2024-01-15T07:01:18;98181.94;;;-0.40;75.99
83492;BME280;73661;56.120;12.302;2024-01-15T07:03:44;98185.31;;;-0.41;75.26
83492;BME280;73661;56.120;12.302;2024-01-15T07:06:11;98192.91;;;-0.51;75.38
83492;BME280;73661;56.120;12.302;2024-01-15T07:08:37;98193.81;;;-0.46;75.93
83492;BME280;73661;56.120;12.302;2024-01-15T07:11:04;98208.41;;;-0.38;75.69
83492;BME280;73661;56.120;12.302;2024-01-15T07:13:30;98198.13;;;-0.41;76.35
83492;BME280;73661;56.120;12.302;2024-01-15T07:15:55;98212.00;;;-0.17;76.46
83492;BME280;73661;56.120;12.302;2024-01-15T07:18:21;98211.16;;;-0.16;77.22
83492;BME280;73661;56.120;12.302;2024-01-15T07:20:47;98211.22;;;-0.10;77.63
83492;BME280;73661;56.120;12.302;2024-01-15T07:23:12;98212.97;;;-0.06;77.58
83492;BME280;73661;56.120;12.302;2024-01-15T07:25:38;98224.84;;;-0.14;79.23
83492;BME280;73661;56.120;12.302;2024-01-15T07:28:04;98217.16;;;-0.14;78.26
83492;BME280;73661;56.120;12.302;2024-01-15T07:30:30;98218.91;;;-0.12;78.38
83492;BME280;73661;56.120;12.302;2024-01-15T07:32:56;98230.81;;;-0.15;78.00
83492;BME280;73661;56.120;12.302;2024-01-15T07:35:21;98222.34;;;-0.08;78.21
83492;BME280;73661;56.120;12.302;2024-01-15T07:37:47;98230.88;;;-0.08;78.12
83492;BME280;73661;56.120;12.302;2024-01-15T07:40:13;98237.03;;;0.11;78.47
83492;BME280;73661;56.120;12.302;2024-01-15T07:42:39;98244.72;;;0.13;77.83
83492;BME280;73661;56.120;12.302;2024-01-15T07:45:05;98235.09;;;-0.17;79.05
83492;BME280;73661;56.120;12.302;2024-01-15T07:47:31;98259.81;;;-0.22;78.44
83492;BME280;73661;56.120;12.302;2024-01-15T07:49:57;98249.63;;;-0.16;77.55
83492;BME280;73661;56.120;12.302;2024-01-15T07:52:23;98271.78;;;-0.21;77.15
83492;BME280;73661;56.120;12.302;2024-01-15T07:54:48;98292.28;;;-0.24;76.34
83492;BME280;73661;56.120;12.302;2024-01-15T07:57:14;98270.72;;;-0.45;75.18
83492;BME280;73661;56.120;12.302;2024-01-15T07:59:40;98294.69;;;-0.37;74.93
83492;BME280;73661;56.120;12.302;2024-01-15T08:02:05;98309.94;;;-0.49;74.83
83492;BME280;73661;56.120;12.302;2024-01-15T08:04:31;98313.25;;;-0.59;74.39
83492;BME280;73661;56.120;12.302;2024-01-15T08:06:57;98324.03;;;-0.83;74.45
83492;BME280;73661;56.120;12.302;2024-01-15T08:09:23;98333.44;;;-0.82;74.05
83492;BME280;73661;56.120;12.302;2024-01-15T08:11:48;98345.28;;;-0.92;74.55
83492;BME280;73661;56.120;12.302;2024-01-15T08:14:15;98370.03;;;-0.89;74.75
83492;BME280;73661;56.120;12.302;2024-01-15T08:16:40;98365.78;;;-0.89;73.25
83492;BME280;73661;56.120;12.302;2024-01-15T08:19:06;98383.19;;;-1.24;73.25
83492;BME280;73661;56.120;12.302;2024-01-15T08:21:32;98391.66;;;-1.28;73.40
83492;BME280;73661;56.120;12.302;2024-01-15T08:24:00;98393.31;;;-1.31;74.28
83492;BME280;73661;56.120;12.302;2024-01-15T08:26:28;98392.75;;;-1.14;73.23
83492;BME280;73661;56.120;12.302;2024-01-15T08:28:53;98421.81;;;-1.10;73.15
83492;BME280;73661;56.120;12.302;2024-01-15T08:31:19;98427.56;;;-1.23;73.85
83492;BME280;73661;56.120;12.302;2024-01-15T08:33:45;98430.81;;;-1.33;74.96
83492;BME280;73661;56.120;12.302;2024-01-15T08:36:12;98436.97;;;-1.21;74.45
83492;BME280;73661;56.120;12.302;2024-01-15T08:38:37;98435.84;;;-1.40;74.09
83492;BME280;73661;56.120;12.302;2024-01-15T08:41:04;98470.72;;;-1.45;73.67
83492;BME280;73661;56.120;12.302;2024-01-15T08:43:29;98479.09;;;-1.52;73.08
83492;BME280;73661;56.120;12.302;2024-01-15T08:45:56;98499.47;;;-1.58;72.41
83492;BME280;73661;56.120;12.302;2024-01-15T08:48:22;98508.19;;;-1.47;71.56
83492;BME280;73661;56.120;12.302;2024-01-15T08:50:48;98503.34;;;-1.31;70.84
83492;BME280;73661;56.120;12.302;2024-01-15T08:53:15;98510.56;;;-1.09;71.25
83492;BME280;73661;56.120;12.302;2024-01-15T08:55:40;98523.72;;;-1.38;70.24
83492;BME280;73661;56.120;12.302;2024-01-15T08:58:08;98529.72;;;-1.35;71.15
83492;BME280;73661;56.120;12.302;2024-01-15T09:00:34;98537.38;;;-1.35;71.62
83492;BME280;73661;56.120;12.302;2024-01-15T09:03:00;98552.63;;;-1.42;70.67
83492;BME280;73661;56.120;12.302;2024-01-15T09:05:26;98549.28;;;-1.38;71.16
83492;BME280;73661;56.120;12.302;2024-01-15T09:07:52;98554.00;;;-1.14;70.99
83492;BME280;73661;56.120;12.302;2024-01-15T09:10:18;98566.94;;;-1.06;71.26
83492;BME280;73661;56.120;12.302;2024-01-15T09:12:46;98566.75;;;-1.17;71.46
83492;BME280;73661;56.120;12.302;2024-01-15T09:15:12;98585.84;;;-0.98;70.29
83492;BME280;73661;56.120;12.302;2024-01-15T09:17:38;98586.97;;;-0.82;70.00
83492;BME280;73661;56.120;12.302;2024-01-15T09:20:04;98592.13;;;-1.27;69.53
83492;BME280;73661;56.120;12.302;2024-01-15T09:22:31;98587.16;;;-1.20;69.86
83492;BME280;73661;56.120;12.302;2024-01-15T09:24:57;98609.56;;;-1.08;68.26
83492;BME280;73661;56.120;12.302;2024-01-15T09:27:24;98614.16;;;-1.35;68.29
83492;BME280;73661;56.120;12.302;2024-01-15T09:29:52;98629.53;;;-0.89;68.37
83492;BME280;73661;56.120;12.302;2024-01-15T09:32:18;98639.00;;;-0.85;67.13
83492;BME280;73661;56.120;12.302;2024-01-15T09:34:45;98638.91;;;-1.34;67.72
83492;BME280;73661;56.120;12.302;2024-01-15T09:37:12;98652.56;;;-1.34;66.77
83492;BME280;73661;56.120;12.302;2024-01-15T09:39:37;98639.06;;;-1.27;66.34
83492;BME280;73661;56.120;12.302;2024-01-15T09:42:04;98654.88;;;-1.02;66.36
83492;BME280;73661;56.120;12.302;2024-01-15T09:44:31;98676.25;;;-1.43;66.18
83492;BME280;73661;56.120;12.302;2024-01-15T09:46:57;98667.97;;;-1.32;66.23
83492;BME280;73661;56.120;12.302;2024-01-15T09:49:24;98688.75;;;-1.16;66.91
83492;BME280;73661;56.120;12.302;2024-01-15T09:51:50;98683.31;;;-1.32;68.04
83492;BME280;73661;56.120;12.302;2024-01-15T09:54:16;98691.25;;;-1.20;67.82
83492;BME280;73661;56.120;12.302;2024-01-15T09:56:45;98706.34;;;-1.32;67.71
83492;BME280;73661;56.120;12.302;2024-01-15T09:59:18;98698.28;;;-1.49;66.49
83492;BME280;73661;56.120;12.302;2024-01-15T10:01:45;98700.53;;;-1.25;67.65
83492;BME280;73661;56.120;12.302;2024-01-15T10:04:11;98709.41;;;-1.47;67.36
83492;BME280;73661;56.120;12.302;2024-01-15T10:06:45;98726.47;;;-1.48;66.93
83492;BME280;73661;56.120;12.302;2024-01-15T10:09:12;98746.00;;;-1.53;68.37
83492;BME280;73661;56.120;12.302;2024-01-15T10:11:41;98746.59;;;-1.25;66.01
83492;BME280;73661;56.120;12.302;2024-01-15T10:14:09;98745.56;;;-1.33;67.33
83492;BME280;73661;56.120;12.302;2024-01-15T10:16:41;98767.22;;;-1.18;66.54
83492;BME280;73661;56.120;12.302;2024-01-15T10:19:07;98762.03;;;-1.60;65.87
83492;BME280;73661;56.120;12.302;2024-01-15T10:21:34;98776.59;;;-1.18;66.61
83492;BME280;73661;56.120;12.302;2024-01-15T10:24:04;98774.31;;;-1.06;65.08
83492;BME280;73661;56.120;12.302;2024-01-15T10:26:32;98789.41;;;-1.18;65.86
83492;BME280;73661;56.120;12.302;2024-01-15T10:29:00;98798.34;;;-1.37;65.43
83492;BME280;73661;56.120;12.302;2024-01-15T10:31:27;98799.50;;;-1.24;65.77
83492;BME280;73661;56.120;12.302;2024-01-15T10:33:53;98797.66;;;-1.30;65.35
83492;BME280;73661;56.120;12.302;2024-01-15T10:36:19;98796.41;;;-1.10;64.77
83492;BME280;73661;56.120;12.302;2024-01-15T10:38:45;98815.69;;;-0.86;64.32
83492;BME280;73661;56.120;12.302;2024-01-15T10:41:11;98825.09;;;-1.24;65.09
83492;BME280;73661;56.120;12.302;2024-01-15T10:43:37;98837.25;;;-1.52;65.14
83492;BME280;73661;56.120;12.302;2024-01-15T10:46:03;98833.50;;;-1.30;65.36
83492;BME280;73661;56.120;12.302;2024-01-15T10:48:30;98839.31;;;-1.35;65.69
83492;BME280;73661;56.120;12.302;2024-01-15T10:50:59;98854.91;;;-1.61;65.15
83492;BME280;73661;56.120;12.302;2024-01-15T10:53:26;98862.75;;;-1.20;65.68
83492;BME280;73661;56.120;12.302;2024-01-15T10:55:53;98873.97;;;-1.50;65.99
83492;BME280;73661;56.120;12.302;2024-01-15T10:58:21;98862.50;;;-1.29;66.77
83492;BME280;73661;56.120;12.302;2024-01-15T11:00:49;98877.72;;;-1.70;65.54
83492;BME280;73661;56.120;12.302;2024-01-15T11:03:15;98882.16;;;-1.63;64.43
83492;BME280;73661;56.120;12.302;2024-01-15T11:05:43;98895.09;;;-1.57;65.20
83492;BME280;73661;56.120;12.302;2024-01-15T11:08:09;98893.25;;;-1.28;65.31
83492;BME280;73661;56.120;12.302;2024-01-15T11:10:44;98904.69;;;-1.48;66.11
83492;BME280;73661;56.120;12.302;2024-01-15T11:21:24;98907.38;;;-1.44;64.80
83492;BME280;73661;56.120;12.302;2024-01-15T11:23:59;98901.56;;;-1.71;64.92
83492;BME280;73661;56.120;12.302;2024-01-15T11:26:28;98908.25;;;-1.76;65.22
83492;BME280;73661;56.120;12.302;2024-01-15T11:28:55;98918.78;;;-1.64;65.33
83492;BME280;73661;56.120;12.302;2024-01-15T11:34:07;98921.19;;;-1.01;63.34
83492;BME280;73661;56.120;12.302;2024-01-15T11:42:00;98927.22;;;-0.99;62.10
83492;BME280;73661;56.120;12.302;2024-01-15T11:44:27;98934.66;;;-0.73;61.77
83492;BME280;73661;56.120;12.302;2024-01-15T11:47:02;98936.13;;;-1.19;63.64
83492;BME280;73661;56.120;12.302;2024-01-15T11:52:18;98970.28;;;-1.19;64.08
83492;BME280;73661;56.120;12.302;2024-01-15T12:00:07;98975.03;;;-0.98;62.70
83492;BME280;73661;56.120;12.302;2024-01-15T12:02:34;98975.78;;;-1.02;63.14
83492;BME280;73661;56.120;12.302;2024-01-15T12:05:00;98965.16;;;-1.19;62.48
83492;BME280;73661;56.120;12.302;2024-01-15T12:07:25;98975.56;;;-1.11;63.61
83492;BME280;73661;56.120;12.302;2024-01-15T12:09:51;98971.44;;;-1.06;64.19
83492;BME280;73661;56.120;12.302;2024-01-15T12:12:27;98976.56;;;-0.70;62.64
83492;BME280;73661;56.120;12.302;2024-01-15T12:14:54;98991.00;;;-0.73;62.46
83492;BME280;73661;56.120;12.302;2024-01-15T12:17:20;98986.97;;;-1.00;61.27
83492;BME280;73661;56.120;12.302;2024-01-15T12:19:46;98997.59;;;-1.18;62.18
83492;BME280;73661;56.120;12.302;2024-01-15T12:22:12;98996.34;;;-1.33;61.55
83492;BME280;73661;56.120;12.302;2024-01-15T12:24:38;99000.28;;;-1.13;62.22
83492;BME280;73661;56.120;12.302;2024-01-15T12:27:04;99008.06;;;-1.42;64.82
83492;BME280;73661;56.120;12.302;2024-01-15T12:29:30;99012.13;;;-1.50;64.14
83492;BME280;73661;56.120;12.302;2024-01-15T12:31:56;99012.28;;;-1.44;64.22
83492;BME280;73661;56.120;12.302;2024-01-15T12:34:22;99019.22;;;-1.71;64.54
83492;BME280;73661;56.120;12.302;2024-01-15T12:36:48;99018.69;;;-1.89;65.42
83492;BME280;73661;56.120;12.302;2024-01-15T12:39:15;99027.09;;;-1.63;64.69
83492;BME280;73661;56.120;12.302;2024-01-15T12:41:41;99021.63;;;-1.46;63.81
83492;BME280;73661;56.120;12.302;2024-01-15T12:44:07;99022.44;;;-1.47;64.71
83492;BME280;73661;56.120;12.302;2024-01-15T12:46:32;99035.84;;;-1.24;63.42
83492;BME280;73661;56.120;12.302;2024-01-15T12:48:58;99037.78;;;-1.47;65.01
83492;BME280;73661;56.120;12.302;2024-01-15T12:51:27;99036.47;;;-1.64;64.01
83492;BME280;73661;56.120;12.302;2024-01-15T12:53:53;99049.09;;;-1.07;63.76
83492;BME280;73661;56.120;12.302;2024-01-15T12:56:19;99053.66;;;-0.94;63.33
83492;BME280;73661;56.120;12.302;2024-01-15T12:58:44;99052.50;;;-1.06;62.57
83492;BME280;73661;56.120;12.302;2024-01-15T13:01:10;99063.78;;;-1.00;62.71
83492;BME280;73661;56.120;12.302;2024-01-15T13:03:36;99066.41;;;-1.28;64.66
83492;BME280;73661;56.120;12.302;2024-01-15T13:06:02;99065.19;;;-1.11;64.11
83492;BME280;73661;56.120;12.302;2024-01-15T13:08:27;99065.84;;;-1.18;63.60
83492;BME280;73661;56.120;12.302;2024-01-15T13:10:55;99069.81;;;-1.29;63.35
83492;BME280;73661;56.120;12.302;2024-01-15T13:13:23;99077.41;;;-1.32;63.98